createdAt,value
2018-10-11T00:01:56.795Z,41.00
2018-10-11T00:04:25.476Z,41.10
2018-10-11T00:06:54.658Z,41.47
2018-10-11T00:09:23.492Z,40.63
2018-10-11T00:11:52.161Z,39.87
2018-10-11T00:14:20.854Z,40.40
2018-10-11T00:16:49.747Z,40.90
2018-10-11T00:19:18.366Z,41.73
2018-10-11T00:21:46.983Z,41.30
2018-10-11T00:24:15.586Z,40.97
2018-10-11T00:26:44.321Z,42.87
2018-10-11T00:29:13.009Z,41.27
2018-10-11T00:31:41.667Z,43.17
2018-10-11T00:34:10.355Z,43.43
2018-10-11T00:36:38.979Z,42.63
2018-10-11T00:39:07.963Z,42.17
2018-10-11T00:41:36.639Z,43.40
2018-10-11T00:44:05.297Z,41.07
2018-10-11T00:46:33.993Z,42.90
2018-10-11T00:49:02.663Z,41.60
2018-10-11T00:51:31.248Z,42.30
2018-10-11T00:54:00.079Z,42.83
2018-10-11T00:56:28.725Z,43.23
2018-10-11T00:58:57.477Z,41.93
2018-10-11T01:01:26.125Z,43.27
2018-10-11T01:03:54.770Z,42.93
2018-10-11T01:06:23.456Z,43.27
2018-10-11T01:08:52.036Z,42.83
2018-10-11T01:11:20.698Z,44.33
2018-10-11T01:13:49.414Z,42.60
2018-10-11T01:16:17.982Z,42.40
2018-10-11T01:18:46.606Z,43.03
2018-10-11T01:21:15.295Z,41.77
2018-10-11T01:23:44.062Z,42.03
2018-10-11T01:26:12.823Z,42.33
2018-10-11T01:28:41.506Z,41.80
2018-10-11T01:31:15.495Z,40.70
2018-10-11T01:33:44.109Z,40.60
2018-10-11T01:36:12.727Z,41.10
2018-10-11T01:38:41.361Z,41.80
2018-10-11T01:41:09.985Z,40.30
2018-10-11T01:43:38.685Z,41.33
2018-10-11T01:46:07.393Z,42.40
2018-10-11T01:48:36.030Z,40.67
2018-10-11T01:51:04.642Z,40.67
2018-10-11T01:53:33.301Z,41.27
2018-10-11T01:56:02.005Z,42.83
2018-10-11T01:58:30.621Z,42.17
2018-10-11T02:00:59.319Z,43.53
2018-10-11T02:03:28.064Z,45.13
2018-10-11T02:05:57.022Z,44.73
2018-10-11T02:08:25.639Z,45.23
2018-10-11T02:10:54.282Z,45.47
2018-10-11T02:13:22.871Z,44.87
2018-10-11T02:15:51.475Z,43.77
2018-10-11T02:18:20.103Z,45.70
2018-10-11T02:20:48.784Z,44.50
2018-10-11T02:23:17.408Z,44.67
2018-10-11T02:25:46.096Z,45.03
2018-10-11T02:28:14.706Z,42.90
2018-10-11T02:30:43.365Z,42.53
2018-10-11T02:33:12.032Z,42.57
2018-10-11T02:35:40.742Z,41.30
2018-10-11T02:38:09.328Z,41.33
2018-10-11T02:40:38.073Z,40.43
2018-10-11T02:43:06.729Z,42.27
2018-10-11T02:45:35.389Z,40.77
2018-10-11T02:48:04.069Z,41.37
2018-10-11T02:50:32.739Z,40.63
2018-10-11T02:53:01.959Z,40.97
2018-10-11T02:55:30.743Z,39.87
2018-10-11T02:58:05.030Z,39.47
2018-10-11T03:00:33.823Z,39.17
2018-10-11T03:03:04.972Z,40.33
2018-10-11T03:05:35.064Z,39.63
2018-10-11T03:08:03.751Z,38.57
2018-10-11T03:10:32.830Z,38.47
2018-10-11T03:13:01.562Z,39.77
2018-10-11T03:15:30.259Z,37.23
2018-10-11T03:17:59.128Z,39.17
2018-10-11T03:20:27.818Z,37.43
2018-10-11T03:22:56.628Z,37.80
2018-10-11T03:25:25.267Z,38.10
2018-10-11T03:27:54.168Z,37.03
2018-10-11T03:30:22.847Z,37.03
2018-10-11T03:32:51.500Z,39.00
2018-10-11T03:35:20.762Z,37.60
2018-10-11T03:37:49.422Z,38.30
2018-10-11T03:40:18.041Z,39.17
2018-10-11T03:42:46.679Z,38.47
2018-10-11T03:45:15.305Z,37.80
2018-10-11T03:47:44.009Z,37.83
2018-10-11T03:50:12.679Z,38.47
2018-10-11T03:52:41.351Z,39.47
2018-10-11T03:55:10.128Z,39.73
2018-10-11T03:57:38.771Z,40.43
2018-10-11T04:00:07.519Z,38.40
2018-10-11T04:02:36.292Z,40.00
2018-10-11T04:05:04.897Z,40.70
2018-10-11T04:07:33.563Z,39.80
2018-10-11T04:10:02.282Z,39.43
2018-10-11T04:12:30.942Z,40.83
2018-10-11T04:14:59.669Z,38.73
2018-10-11T04:17:28.425Z,39.97
2018-10-11T04:19:57.444Z,38.93
2018-10-11T04:22:26.170Z,41.33
2018-10-11T04:24:54.966Z,39.83
2018-10-11T04:27:23.700Z,39.30
2018-10-11T04:29:52.325Z,41.47
2018-10-11T04:32:20.890Z,39.90
2018-10-11T04:34:49.504Z,40.43
2018-10-11T04:37:18.316Z,42.60
2018-10-11T04:39:46.894Z,39.07
2018-10-11T04:42:15.483Z,40.17
2018-10-11T04:44:44.058Z,38.80
2018-10-11T04:47:12.759Z,38.83
2018-10-11T04:49:41.334Z,40.17
2018-10-11T04:52:09.968Z,39.30
2018-10-11T04:54:40.539Z,37.77
2018-10-11T04:57:09.642Z,38.57
2018-10-11T04:59:43.996Z,39.60
2018-10-11T05:02:12.784Z,39.43
2018-10-11T05:04:41.628Z,37.70
2018-10-11T05:07:12.837Z,38.60
2018-10-11T05:09:41.610Z,37.50
2018-10-11T05:12:10.300Z,37.50
2018-10-11T05:14:38.961Z,36.73
2018-10-11T05:17:08.281Z,35.40
2018-10-11T05:19:37.688Z,35.27
2018-10-11T05:22:06.382Z,35.07
2018-10-11T05:24:34.992Z,33.53
2018-10-11T05:27:03.655Z,34.97
2018-10-11T05:29:32.239Z,35.07
2018-10-11T05:32:01.531Z,34.77
2018-10-11T05:34:30.143Z,36.87
2018-10-11T05:36:58.851Z,36.47
2018-10-11T05:39:28.507Z,37.40
2018-10-11T05:41:57.696Z,36.80
2018-10-11T05:44:26.447Z,37.73
2018-10-11T05:46:56.922Z,36.93
2018-10-11T05:49:26.432Z,36.30
2018-10-11T05:51:55.156Z,36.20
2018-10-11T05:54:23.712Z,35.63
2018-10-11T05:56:52.496Z,34.87
2018-10-11T05:59:21.032Z,35.60
2018-10-11T06:01:50.488Z,35.70
2018-10-11T06:04:19.208Z,34.80
2018-10-11T06:06:48.701Z,33.60
2018-10-11T06:09:18.038Z,33.50
2018-10-11T06:11:46.671Z,33.97
2018-10-11T06:14:15.628Z,33.93
2018-10-11T06:16:44.478Z,34.30
2018-10-11T06:19:13.981Z,34.67
2018-10-11T06:21:42.726Z,35.90
2018-10-11T06:24:11.482Z,34.83
2018-10-11T06:26:40.181Z,36.10
2018-10-11T06:29:08.763Z,35.90
2018-10-11T06:31:37.596Z,36.07
2018-10-11T06:34:06.245Z,34.43
2018-10-11T06:36:34.928Z,34.57
2018-10-11T06:39:04.331Z,35.27
2018-10-11T06:41:32.975Z,33.83
2018-10-11T06:44:01.688Z,34.67
2018-10-11T06:46:30.319Z,32.67
2018-10-11T06:48:58.999Z,33.80
2018-10-11T06:51:27.590Z,34.00
2018-10-11T06:53:56.161Z,35.60
2018-10-11T06:56:25.324Z,32.77
2018-10-11T06:58:54.512Z,34.13
2018-10-11T07:01:23.236Z,33.40
2018-10-11T07:03:51.911Z,33.17
2018-10-11T07:06:20.520Z,32.50
2018-10-11T07:08:49.182Z,31.57
2018-10-11T07:11:17.885Z,32.67
2018-10-11T07:13:46.562Z,31.90
2018-10-11T07:16:15.433Z,32.80
2018-10-11T07:18:44.200Z,31.57
2018-10-11T07:21:12.976Z,30.93
2018-10-11T07:23:41.637Z,30.67
2018-10-11T07:26:10.299Z,30.07
2018-10-11T07:28:38.909Z,30.80
2018-10-11T07:31:07.563Z,29.13
2018-10-11T07:33:36.219Z,28.80
2018-10-11T07:36:05.103Z,28.20
2018-10-11T07:38:33.856Z,27.93
2018-10-11T07:41:02.631Z,25.30
2018-10-11T07:43:31.386Z,24.45
2018-10-11T07:46:00.020Z,23.85
2018-10-11T07:48:28.698Z,23.85
2018-10-11T07:50:57.343Z,23.50
2018-10-11T07:53:26.004Z,24.20
2018-10-11T07:55:54.581Z,23.80
2018-10-11T07:58:23.260Z,23.07
2018-10-11T08:00:51.847Z,24.10
2018-10-11T08:03:20.517Z,23.40
2018-10-11T08:05:49.231Z,24.57
2018-10-11T08:08:17.875Z,22.58
2018-10-11T08:10:46.669Z,22.73
2018-10-11T08:13:15.444Z,22.73
2018-10-11T08:15:44.157Z,22.52
2018-10-11T08:18:12.743Z,23.87
2018-10-11T08:20:41.974Z,21.45
2018-10-11T08:23:10.387Z,22.52
2018-10-11T08:25:39.287Z,21.40
2018-10-11T08:28:07.839Z,21.40
2018-10-11T08:30:36.578Z,20.17
2018-10-11T08:33:05.445Z,20.20
2018-10-11T08:35:34.135Z,20.23
2018-10-11T08:38:03.102Z,19.65
2018-10-11T08:40:31.562Z,20.68
2018-10-11T08:43:00.294Z,20.85
2018-10-11T08:45:29.387Z,20.95
2018-10-11T08:47:58.016Z,19.73
2018-10-11T08:50:26.883Z,20.43
2018-10-11T08:52:55.650Z,20.65
2018-10-11T08:55:24.276Z,21.45
2018-10-11T08:57:52.953Z,20.08
2018-10-11T09:00:21.806Z,20.08
2018-10-11T09:02:50.468Z,20.43
2018-10-11T09:05:19.107Z,18.75
2018-10-11T09:07:51.633Z,21.48
2018-10-11T09:10:21.392Z,18.40
2018-10-11T09:13:00.333Z,18.92
2018-10-11T09:15:28.969Z,19.30
2018-10-11T09:17:57.666Z,18.45
2018-10-11T09:20:26.300Z,19.12
2018-10-11T09:22:55.007Z,17.67
2018-10-11T09:25:23.689Z,17.10
2018-10-11T09:27:52.506Z,16.57
2018-10-11T09:30:21.219Z,17.00
2018-10-11T09:32:49.836Z,16.45
2018-10-11T09:35:18.473Z,18.10
2018-10-11T09:37:47.126Z,16.97
2018-10-11T09:40:15.765Z,16.97
2018-10-11T09:42:44.416Z,16.73
2018-10-11T09:45:13.117Z,17.52
2018-10-11T09:47:42.044Z,15.98
2018-10-11T09:50:10.680Z,15.60
2018-10-11T09:52:39.296Z,16.25
2018-10-11T09:55:07.964Z,15.90
2018-10-11T09:57:37.882Z,16.48
2018-10-11T10:00:12.952Z,16.45
2018-10-11T10:02:41.803Z,17.87
2018-10-11T10:05:10.522Z,15.20
2018-10-11T10:07:39.469Z,18.52
2018-10-11T10:10:08.289Z,15.38
2018-10-11T10:12:37.032Z,15.53
2018-10-11T10:15:05.724Z,17.90
2018-10-11T10:17:34.824Z,19.00
2018-10-11T10:20:03.426Z,15.70
2018-10-11T10:22:32.029Z,15.45
2018-10-11T10:25:00.637Z,15.63
2018-10-11T10:27:29.348Z,14.95
2018-10-11T10:29:58.066Z,15.70
2018-10-11T10:32:26.706Z,14.87
2018-10-11T10:34:55.587Z,14.65
2018-10-11T10:37:24.317Z,15.23
2018-10-11T10:39:53.086Z,14.68
2018-10-11T10:42:21.881Z,14.68
2018-10-11T10:44:50.515Z,16.02
2018-10-11T10:47:19.184Z,15.98
2018-10-11T10:49:47.889Z,14.85
2018-10-11T10:52:16.644Z,15.70
2018-10-11T10:54:46.465Z,16.35
2018-10-11T10:57:15.101Z,16.48
2018-10-11T10:59:43.722Z,16.35
2018-10-11T11:02:12.404Z,16.62
2018-10-11T11:04:41.101Z,15.50
2018-10-11T11:07:09.787Z,17.62
2018-10-11T11:09:38.532Z,14.58
2018-10-11T11:12:07.336Z,19.00
2018-10-11T11:14:35.975Z,16.23
2018-10-11T11:17:04.750Z,15.43
2018-10-11T11:19:33.552Z,15.48
2018-10-11T11:22:02.353Z,16.93
2018-10-11T11:24:31.042Z,14.98
2018-10-11T11:27:01.210Z,14.93
2018-10-11T11:29:29.992Z,15.15
2018-10-11T11:31:58.718Z,16.12
2018-10-11T11:34:27.525Z,14.87
2018-10-11T11:36:56.342Z,14.43
2018-10-11T11:39:25.066Z,15.95
2018-10-11T11:41:54.920Z,14.55
2018-10-11T11:44:23.562Z,16.17
2018-10-11T11:46:52.375Z,15.90
2018-10-11T11:49:21.235Z,15.08
2018-10-11T11:51:50.363Z,14.55
2018-10-11T11:54:20.287Z,14.28
2018-10-11T11:56:49.489Z,15.10
2018-10-11T11:59:18.179Z,17.35
2018-10-11T12:01:46.856Z,14.63
2018-10-11T12:04:15.572Z,14.73
2018-10-11T12:06:44.244Z,14.45
2018-10-11T12:09:13.812Z,15.05
2018-10-11T12:11:42.758Z,15.70
2018-10-11T12:14:12.588Z,16.27
2018-10-11T12:16:41.328Z,14.68
2018-10-11T12:19:11.546Z,15.88
2018-10-11T12:21:40.948Z,13.88
2018-10-11T12:24:09.964Z,16.07
2018-10-11T12:26:38.586Z,15.15
2018-10-11T12:29:07.392Z,14.95
2018-10-11T12:31:35.908Z,15.10
2018-10-11T12:34:04.608Z,14.85
2018-10-11T12:36:33.366Z,15.28
2018-10-11T12:39:02.278Z,14.75
2018-10-11T12:41:31.083Z,15.15
2018-10-11T12:43:59.726Z,14.70
2018-10-11T12:46:30.519Z,16.32
2018-10-11T12:48:57.165Z,13.95
2018-10-11T12:51:25.947Z,16.80
2018-10-11T12:53:54.593Z,16.07
2018-10-11T12:56:23.556Z,14.65
2018-10-11T12:58:52.250Z,14.05
2018-10-11T13:01:22.978Z,14.25
2018-10-11T13:03:49.636Z,17.75
2018-10-11T13:06:18.394Z,16.12
2018-10-11T13:08:47.132Z,16.50
2018-10-11T13:11:17.446Z,14.98
2018-10-11T13:13:49.041Z,14.20
2018-10-11T13:16:14.905Z,16.85
2018-10-11T13:18:43.575Z,14.60
2018-10-11T13:21:12.964Z,15.58
2018-10-11T13:23:41.738Z,15.08
2018-10-11T13:26:10.464Z,15.13
2018-10-11T13:28:39.292Z,15.20
2018-10-11T13:31:08.033Z,15.30
2018-10-11T13:33:36.812Z,14.87
2018-10-11T13:36:05.536Z,14.83
2018-10-11T13:38:34.232Z,14.73
2018-10-11T13:41:03.871Z,14.78
2018-10-11T13:43:31.734Z,17.05
2018-10-11T13:46:02.540Z,14.33
2018-10-11T13:48:29.110Z,16.87
2018-10-11T13:50:57.954Z,13.70
2018-10-11T13:53:27.233Z,14.90
2018-10-11T13:55:58.310Z,15.98
2018-10-11T13:58:24.827Z,13.95
2018-10-11T14:00:53.735Z,13.08
2018-10-11T14:03:22.456Z,16.67
2018-10-11T14:05:51.105Z,17.82
2018-10-11T14:08:19.751Z,13.45
2018-10-11T14:10:48.558Z,16.62
2018-10-11T14:15:52.201Z,17.50
2018-10-11T14:18:20.890Z,15.30
2018-10-11T14:20:49.588Z,15.78
2018-10-11T14:23:18.255Z,14.18
2018-10-11T14:25:46.954Z,17.20
2018-10-11T14:28:15.638Z,17.60
2018-10-11T14:30:44.655Z,13.10
2018-10-11T14:33:13.408Z,20.08
2018-10-11T14:35:42.172Z,16.55
2018-10-11T14:38:10.923Z,13.13
2018-10-11T14:40:39.646Z,15.95
2018-10-11T14:43:08.476Z,13.20
2018-10-11T14:45:37.413Z,16.00
2018-10-11T14:48:06.152Z,13.62
2018-10-11T14:50:35.037Z,15.32
2018-10-11T14:53:03.724Z,15.43
2018-10-11T14:55:32.500Z,13.65
2018-10-11T14:58:01.114Z,16.02
2018-10-11T15:00:29.780Z,14.35
2018-10-11T15:02:58.643Z,14.35
2018-10-11T15:05:27.350Z,15.28
2018-10-11T15:07:55.966Z,16.40
2018-10-11T15:10:24.630Z,13.70
2018-10-11T15:12:53.296Z,13.25
2018-10-11T15:15:22.301Z,19.40
2018-10-11T15:17:51.248Z,13.30
2018-10-11T15:20:19.890Z,13.95
2018-10-11T15:22:48.536Z,14.10
2018-10-11T15:25:17.330Z,12.28
2018-10-11T15:27:45.937Z,12.75
2018-10-11T15:30:14.797Z,19.73
2018-10-11T15:32:43.413Z,14.38
2018-10-11T15:35:12.071Z,14.18
2018-10-11T15:37:40.739Z,13.58
2018-10-11T15:40:09.403Z,13.20
2018-10-11T15:42:38.167Z,14.55
2018-10-11T15:45:07.401Z,12.30
2018-10-11T15:47:36.327Z,15.25
2018-10-11T15:50:05.082Z,16.25
2018-10-11T15:52:34.044Z,19.30
2018-10-11T15:55:02.606Z,13.30
2018-10-11T15:57:31.491Z,16.20
2018-10-11T16:00:00.437Z,15.08
2018-10-11T16:02:29.178Z,13.95
2018-10-11T16:04:58.220Z,16.27
2018-10-11T16:07:26.974Z,14.60
2018-10-11T16:09:55.650Z,14.75
2018-10-11T16:12:24.478Z,14.20
2018-10-11T16:14:53.142Z,13.03
2018-10-11T16:17:21.990Z,18.82
2018-10-11T16:19:50.634Z,14.18
2018-10-11T16:22:19.613Z,14.50
2018-10-11T16:24:48.540Z,17.67
2018-10-11T16:27:17.145Z,13.00
2018-10-11T16:29:46.042Z,13.65
2018-10-11T16:32:14.980Z,14.35
2018-10-11T16:34:43.711Z,16.95
2018-10-11T16:37:13.143Z,13.38
2018-10-11T16:39:41.878Z,14.28
2018-10-11T16:42:10.673Z,14.90
2018-10-11T16:44:39.445Z,15.65
2018-10-11T16:47:08.403Z,17.77
2018-10-11T16:49:37.183Z,14.65
2018-10-11T16:52:06.260Z,17.55
2018-10-11T16:54:35.129Z,14.53
2018-10-11T16:57:03.888Z,16.35
2018-10-11T16:59:32.608Z,16.45
2018-10-11T17:02:01.288Z,15.75
2018-10-11T17:04:30.497Z,15.70
2018-10-11T17:06:59.101Z,17.50
2018-10-11T17:09:28.000Z,18.12
2018-10-11T17:11:56.660Z,17.12
2018-10-11T17:14:25.444Z,16.87
2018-10-11T17:16:55.274Z,16.02
2018-10-11T17:19:34.801Z,18.00
2018-10-11T17:22:04.005Z,16.77
2018-10-11T17:31:34.059Z,17.40
2018-10-11T17:34:05.371Z,16.23
2018-10-11T17:36:51.171Z,17.00
2018-10-11T17:44:22.425Z,19.30
2018-10-11T17:46:54.545Z,17.82
2018-10-11T17:49:23.301Z,19.25
2018-10-11T17:51:54.756Z,18.25
2018-10-11T17:54:23.465Z,17.98
2018-10-11T17:56:54.616Z,17.02
2018-10-11T17:59:58.123Z,20.52
2018-10-11T18:02:27.930Z,18.95
2018-10-11T18:04:58.146Z,19.90
2018-10-11T18:07:27.344Z,17.90
2018-10-11T18:09:57.801Z,18.50
2018-10-11T18:12:27.927Z,19.12
2018-10-11T18:14:58.015Z,19.15
2018-10-11T18:17:26.754Z,19.05
2018-10-11T18:19:57.188Z,19.17
2018-10-11T18:22:26.996Z,18.85
2018-10-11T18:24:56.781Z,23.05
2018-10-11T18:27:25.736Z,20.15
2018-10-11T18:29:54.865Z,17.37
2018-10-11T18:32:24.400Z,18.82
2018-10-11T18:34:53.129Z,19.00
2018-10-11T18:37:24.095Z,18.40
2018-10-11T18:39:55.136Z,20.37
2018-10-11T18:42:23.864Z,18.07
2018-10-11T18:44:52.683Z,21.10
2018-10-11T18:47:21.823Z,18.40
2018-10-11T18:49:50.521Z,18.63
2018-10-11T18:52:19.287Z,19.02
2018-10-11T18:54:49.054Z,18.25
2018-10-11T18:57:17.993Z,17.73
2018-10-11T18:59:49.775Z,17.50
2018-10-11T19:02:18.889Z,16.87
2018-10-11T19:04:47.696Z,19.52
2018-10-11T19:07:17.550Z,18.42
2018-10-11T19:09:46.810Z,20.77
2018-10-11T19:12:28.146Z,18.12
2018-10-11T19:15:02.229Z,20.77
2018-10-11T19:17:37.087Z,21.55
2018-10-11T19:20:20.365Z,18.42
2018-10-11T19:22:55.548Z,20.37
2018-10-11T19:25:26.290Z,18.30
2018-10-11T19:27:59.234Z,18.65
2018-10-11T19:30:30.279Z,20.10
2018-10-11T19:33:00.922Z,20.73
2018-10-11T19:35:31.091Z,19.82
2018-10-11T19:38:03.087Z,18.73
2018-10-11T19:40:33.139Z,19.80
2018-10-11T19:43:03.351Z,19.43
2018-10-11T19:45:32.191Z,19.60
2018-10-11T19:48:04.603Z,18.70
2018-10-11T19:50:34.397Z,17.53
2018-10-11T19:53:03.225Z,19.87
2018-10-11T19:55:33.711Z,19.37
2018-10-11T19:58:03.823Z,18.93
2018-10-11T20:00:32.872Z,19.60
2018-10-11T20:03:04.034Z,18.63
2018-10-11T20:05:32.940Z,17.80
2018-10-11T20:08:05.164Z,21.90
2018-10-11T20:10:36.062Z,19.50
2018-10-11T20:13:05.050Z,19.87
2018-10-11T20:15:33.793Z,16.93
2018-10-11T20:18:03.904Z,19.10
2018-10-11T20:20:35.961Z,17.83
2018-10-11T20:23:13.238Z,21.10
2018-10-11T20:25:46.286Z,18.10
2018-10-11T20:28:15.014Z,17.43
2018-10-11T20:30:45.084Z,19.73
2018-10-11T20:33:13.720Z,18.17
2018-10-11T20:35:42.496Z,18.00
2018-10-11T20:38:11.181Z,18.13
2018-10-11T20:40:39.836Z,19.80
2018-10-11T20:43:09.392Z,18.33
2018-10-11T20:45:39.617Z,17.97
2018-10-11T20:48:08.788Z,17.77
2018-10-11T20:50:37.825Z,18.17
2018-10-11T20:53:07.275Z,18.40
2018-10-11T20:55:44.689Z,16.80
2018-10-11T20:58:14.409Z,18.90
2018-10-11T21:00:43.272Z,17.17
2018-10-11T21:03:12.022Z,19.17
2018-10-11T21:05:41.009Z,18.50
2018-10-11T21:08:10.026Z,17.00
2018-10-11T21:10:38.830Z,17.63
2018-10-11T21:15:56.504Z,16.93
2018-10-11T21:18:30.602Z,18.33
2018-10-11T21:20:59.241Z,17.17
2018-10-11T21:23:28.103Z,16.30
2018-10-11T21:25:56.846Z,18.47
2018-10-11T21:28:36.872Z,17.00
2018-10-11T21:31:17.662Z,17.57
2018-10-11T21:37:06.808Z,17.27
2018-10-11T21:39:36.270Z,16.50
2018-10-11T21:42:05.768Z,18.70
2018-10-11T21:44:35.926Z,18.00
2018-10-11T21:47:07.002Z,16.90
2018-10-11T21:49:36.056Z,17.37
2018-10-11T21:52:04.949Z,18.27
2018-10-11T21:54:34.420Z,17.10
2018-10-11T21:57:04.008Z,15.93
2018-10-11T21:59:34.348Z,15.63
2018-10-11T22:02:03.490Z,16.57
2018-10-11T22:04:35.252Z,19.60
2018-10-11T22:07:04.232Z,17.83
2018-10-11T22:09:33.379Z,15.97
2018-10-11T22:12:03.307Z,16.87
2018-10-11T22:14:35.868Z,16.00
2018-10-11T22:17:05.590Z,16.10
2018-10-11T22:19:35.603Z,16.37
2018-10-11T22:22:05.211Z,16.13
2018-10-11T22:24:34.919Z,15.70
2018-10-11T22:27:04.112Z,16.57
2018-10-11T22:29:41.836Z,18.50
2018-10-11T22:35:02.441Z,15.73
2018-10-11T22:37:39.092Z,15.90
2018-10-11T22:40:12.682Z,18.40
2018-10-11T22:42:50.588Z,17.70
2018-10-11T22:45:19.802Z,19.07
2018-10-11T22:48:00.102Z,15.80
2018-10-11T22:50:35.543Z,15.90
2018-10-11T22:53:12.794Z,15.90
2018-10-11T22:55:48.183Z,15.90
2018-10-11T22:58:30.034Z,14.80
2018-10-11T23:01:26.028Z,15.17
2018-10-11T23:04:05.858Z,15.50
2018-10-11T23:06:43.552Z,15.40
2018-10-11T23:09:17.247Z,16.13
2018-10-11T23:11:59.925Z,16.83
2018-10-11T23:14:34.856Z,15.03
2018-10-11T23:17:56.909Z,16.43
2018-10-11T23:20:36.349Z,17.23
2018-10-11T23:23:13.551Z,15.53
2018-10-11T23:25:52.579Z,16.40
2018-10-11T23:28:24.874Z,18.33
2018-10-11T23:30:53.547Z,18.73
2018-10-11T23:33:22.327Z,16.57
2018-10-11T23:35:58.689Z,16.23
2018-10-11T23:38:28.899Z,17.67
2018-10-11T23:40:57.583Z,15.67
2018-10-11T23:43:26.289Z,15.97
2018-10-11T23:45:54.935Z,16.00
2018-10-11T23:48:23.593Z,14.80
2018-10-11T23:50:52.249Z,16.70
2018-10-11T23:53:20.927Z,16.97
2018-10-11T23:55:50.365Z,15.57
2018-10-11T23:58:18.980Z,16.80
